Terminal Aerodrome Forecast
Issued by NWS Nashville, TN

Home | Current Version | Previous Version | Text Only | Print | Product List | Glossary On
Versions: 1 2 3 4 5 6 7 8 9 10 11 12 13 14 15 16 17 18 19 20 21 22 23 24
832
FTUS44 KOHX 292327
TAFCSV
TAF
KCSV 292327Z 3000/3024 26005KT P6SM BKN120
     FM300600 23003KT 3SM BR OVC035
     FM300800 VRB03KT 2SM BR BKN005
     FM301300 24003KT 4SM BR OVC015
     FM301500 27006KT P6SM BKN025=

USA.gov is the U.S. government's official web portal to all federal, state and local government web resources and services.